createdAt,value
2019-04-30T00:01:37.174Z,12.70
2019-04-30T00:04:11.973Z,12.70
2019-04-30T00:06:39.695Z,12.60
2019-04-30T00:09:09.770Z,12.60
2019-04-30T00:11:39.457Z,12.70
2019-04-30T00:14:07.108Z,12.60
2019-04-30T00:16:36.217Z,12.60
2019-04-30T00:19:06.047Z,12.70
2019-04-30T00:21:33.829Z,12.70
2019-04-30T00:24:06.251Z,12.80
2019-04-30T00:26:31.300Z,12.70
2019-04-30T00:28:58.941Z,12.70
2019-04-30T00:31:27.455Z,12.70
2019-04-30T00:33:57.892Z,12.70
2019-04-30T00:36:29.073Z,12.80
2019-04-30T00:38:54.830Z,12.80
2019-04-30T00:41:22.708Z,12.90
2019-04-30T00:43:50.868Z,12.90
2019-04-30T00:46:25.035Z,12.80
2019-04-30T00:48:48.185Z,12.80
2019-04-30T00:51:21.237Z,12.80
2019-04-30T00:53:51.387Z,12.80
2019-04-30T00:56:15.816Z,12.80
2019-04-30T00:58:45.252Z,12.80
2019-04-30T01:01:43.734Z,12.90
2019-04-30T01:04:28.113Z,12.90
2019-04-30T01:06:59.938Z,12.90
2019-04-30T01:09:25.640Z,12.90
2019-04-30T01:11:55.271Z,12.90
2019-04-30T01:14:23.352Z,12.90
2019-04-30T01:16:52.641Z,12.80
2019-04-30T01:19:29.506Z,12.80
2019-04-30T01:21:50.908Z,12.80
2019-04-30T01:24:19.090Z,12.90
2019-04-30T01:26:48.592Z,12.80
2019-04-30T01:29:16.522Z,12.80
2019-04-30T01:31:44.165Z,12.80
2019-04-30T01:34:14.056Z,12.80
2019-04-30T01:36:43.473Z,12.70
2019-04-30T01:39:10.922Z,12.80
2019-04-30T01:41:40.194Z,12.80
2019-04-30T01:44:11.715Z,12.80
2019-04-30T01:46:39.068Z,12.90
2019-04-30T01:49:08.562Z,12.90
2019-04-30T01:51:38.563Z,12.80
2019-04-30T01:54:05.953Z,12.70
2019-04-30T01:56:41.879Z,12.80
2019-04-30T01:59:14.588Z,12.70
2019-04-30T02:01:43.921Z,12.70
2019-04-30T02:04:13.014Z,12.80
2019-04-30T02:06:40.692Z,12.80
2019-04-30T02:09:09.146Z,12.90
2019-04-30T02:11:38.739Z,12.90
2019-04-30T02:14:06.560Z,12.90
2019-04-30T02:16:34.177Z,12.90
2019-04-30T02:19:01.802Z,13.00
2019-04-30T02:21:30.342Z,13.00
2019-04-30T02:23:59.012Z,12.90
2019-04-30T02:26:28.504Z,13.00
2019-04-30T02:28:56.315Z,12.90
2019-04-30T02:31:23.937Z,13.00
2019-04-30T02:33:55.279Z,13.10
2019-04-30T02:36:40.330Z,13.30
2019-04-30T02:39:11.119Z,13.20
2019-04-30T02:41:40.885Z,13.30
2019-04-30T02:44:09.708Z,13.30
2019-04-30T02:46:40.688Z,13.10
2019-04-30T02:49:10.638Z,13.10
2019-04-30T02:51:40.067Z,13.10
2019-04-30T02:54:23.954Z,13.20
2019-04-30T02:57:11.273Z,13.30
2019-04-30T02:59:59.966Z,13.20
2019-04-30T03:02:29.199Z,13.20
2019-04-30T03:04:56.979Z,13.00
2019-04-30T03:07:24.629Z,13.00
2019-04-30T03:09:52.313Z,13.10
2019-04-30T03:12:20.442Z,13.00
2019-04-30T03:14:50.203Z,13.10
2019-04-30T03:17:36.085Z,13.00
2019-04-30T03:20:27.755Z,13.00
2019-04-30T03:22:44.161Z,12.90
2019-04-30T03:25:11.788Z,12.90
2019-04-30T03:27:42.237Z,13.00
2019-04-30T03:30:11.728Z,13.10
2019-04-30T03:32:43.069Z,13.20
2019-04-30T03:35:12.258Z,13.20
2019-04-30T03:37:39.675Z,13.10
2019-04-30T03:40:12.722Z,13.20
2019-04-30T03:42:39.531Z,13.30
2019-04-30T03:45:09.965Z,13.30
2019-04-30T03:47:40.240Z,13.20
2019-04-30T03:50:06.480Z,13.10
2019-04-30T03:52:34.130Z,13.10
2019-04-30T03:55:02.942Z,13.10
2019-04-30T03:57:34.322Z,13.10
2019-04-30T04:00:02.338Z,13.00
2019-04-30T04:02:41.778Z,13.00
2019-04-30T04:05:20.343Z,13.00
2019-04-30T04:08:09.629Z,13.10
2019-04-30T04:10:44.611Z,13.10
2019-04-30T04:13:12.428Z,13.10
2019-04-30T04:15:40.293Z,13.10
2019-04-30T04:18:10.741Z,13.00
2019-04-30T04:20:42.794Z,13.00
2019-04-30T04:23:12.620Z,13.10
2019-04-30T04:25:40.285Z,13.10
2019-04-30T04:28:10.121Z,13.00
2019-04-30T04:30:44.125Z,13.00
2019-04-30T04:33:24.991Z,13.00
2019-04-30T04:35:52.634Z,13.10
2019-04-30T04:38:20.586Z,13.20
2019-04-30T04:40:54.270Z,13.20
2019-04-30T04:43:21.898Z,13.10
2019-04-30T04:45:50.109Z,13.00
2019-04-30T04:48:19.793Z,13.00
2019-04-30T04:50:50.009Z,13.00
2019-04-30T04:53:19.301Z,13.10
2019-04-30T04:55:46.618Z,13.00
2019-04-30T04:58:14.350Z,13.00
2019-04-30T05:00:41.994Z,13.00
2019-04-30T05:03:20.147Z,13.00
2019-04-30T05:05:49.990Z,13.10
2019-04-30T05:08:18.577Z,13.20
2019-04-30T05:10:46.382Z,13.30
2019-04-30T05:13:13.981Z,13.40
2019-04-30T05:15:41.607Z,13.40
2019-04-30T05:18:09.313Z,13.40
2019-04-30T05:20:39.846Z,13.40
2019-04-30T05:23:06.687Z,13.40
2019-04-30T05:25:34.361Z,13.50
2019-04-30T05:28:02.133Z,13.40
2019-04-30T05:30:29.814Z,13.50
2019-04-30T05:32:58.870Z,13.50
2019-04-30T05:35:28.723Z,13.50
2019-04-30T05:37:56.185Z,13.40
2019-04-30T05:40:23.890Z,13.40
2019-04-30T05:42:51.728Z,13.40
2019-04-30T05:45:19.481Z,13.40
2019-04-30T05:47:50.277Z,13.30
2019-04-30T05:50:16.924Z,13.30
2019-04-30T05:52:44.605Z,13.30
2019-04-30T05:55:12.644Z,13.30
2019-04-30T05:57:52.717Z,13.20
2019-04-30T06:00:10.338Z,13.20
2019-04-30T06:02:39.877Z,13.30
2019-04-30T06:05:08.784Z,13.50
2019-04-30T06:07:36.806Z,13.50
2019-04-30T06:10:17.077Z,13.50
2019-04-30T06:12:55.300Z,13.50
2019-04-30T06:15:29.098Z,13.40
2019-04-30T06:18:01.152Z,13.50
2019-04-30T06:20:28.659Z,13.40
2019-04-30T06:22:57.185Z,13.40
2019-04-30T06:25:32.135Z,13.40
2019-04-30T06:27:55.961Z,13.50
2019-04-30T06:30:24.516Z,13.40
2019-04-30T06:32:52.508Z,13.30
2019-04-30T06:35:20.247Z,13.40
2019-04-30T06:37:48.904Z,13.40
2019-04-30T06:40:19.559Z,13.60
2019-04-30T06:42:49.541Z,13.70
2019-04-30T06:45:19.143Z,13.60
2019-04-30T06:47:48.915Z,13.70
2019-04-30T06:50:19.206Z,13.80
2019-04-30T06:52:56.388Z,13.80
2019-04-30T06:55:19.103Z,13.80
2019-04-30T06:57:47.034Z,13.80
2019-04-30T07:00:16.247Z,13.80
2019-04-30T07:02:45.150Z,13.90
2019-04-30T07:05:13.669Z,13.80
2019-04-30T07:08:09.062Z,13.90
2019-04-30T07:10:34.894Z,13.80
2019-04-30T07:13:19.005Z,13.70
2019-04-30T07:15:49.000Z,13.70
2019-04-30T07:18:18.954Z,13.70
2019-04-30T07:20:48.641Z,13.80
2019-04-30T07:23:19.262Z,13.90
2019-04-30T07:25:49.324Z,13.80
2019-04-30T07:28:19.433Z,13.80
2019-04-30T07:30:54.719Z,13.80
2019-04-30T07:33:20.967Z,13.90
2019-04-30T07:35:51.050Z,13.90
2019-04-30T07:38:20.099Z,14.00
2019-04-30T07:40:51.689Z,14.00
2019-04-30T07:43:23.205Z,14.00
2019-04-30T07:45:54.481Z,14.10
2019-04-30T07:48:30.105Z,14.20
2019-04-30T07:50:59.297Z,14.30
2019-04-30T07:53:31.019Z,14.40
2019-04-30T07:56:02.347Z,14.30
2019-04-30T07:58:33.125Z,14.40
2019-04-30T08:01:10.360Z,14.30
2019-04-30T08:04:06.250Z,14.30
2019-04-30T08:06:39.659Z,14.30
2019-04-30T08:09:14.511Z,14.30
2019-04-30T08:11:49.144Z,14.30
2019-04-30T08:14:21.114Z,14.20
2019-04-30T08:16:51.358Z,14.20
2019-04-30T08:19:25.601Z,14.20
2019-04-30T08:21:54.619Z,14.20
2019-04-30T09:09:12.777Z,14.30
2019-04-30T09:11:51.927Z,14.50
2019-04-30T09:14:10.305Z,14.60
2019-04-30T09:16:39.279Z,14.70
2019-04-30T09:19:09.740Z,14.60
2019-04-30T09:21:38.569Z,14.50
2019-04-30T09:24:09.326Z,14.60
2019-04-30T09:26:36.783Z,14.60
2019-04-30T09:29:04.433Z,14.70
2019-04-30T09:31:32.108Z,14.80
2019-04-30T09:34:01.006Z,14.90
2019-04-30T09:36:29.342Z,14.80
2019-04-30T09:38:58.814Z,14.60
2019-04-30T09:41:28.650Z,14.60
2019-04-30T09:43:56.195Z,14.90
2019-04-30T09:46:26.961Z,15.20
2019-04-30T09:48:53.376Z,15.50
2019-04-30T09:51:24.240Z,15.60
2019-04-30T09:53:58.540Z,15.50
2019-04-30T09:56:20.274Z,15.50
2019-04-30T09:58:49.238Z,15.30
2019-04-30T10:01:17.089Z,15.40
2019-04-30T10:03:45.212Z,15.50
2019-04-30T10:06:13.485Z,15.80
2019-04-30T10:08:48.329Z,16.00
2019-04-30T10:11:39.071Z,16.10
2019-04-30T10:14:06.790Z,16.00
2019-04-30T10:17:00.081Z,15.90
2019-04-30T10:19:29.248Z,16.00
2019-04-30T10:21:58.854Z,16.10
2019-04-30T10:24:26.791Z,16.30
2019-04-30T10:26:54.588Z,16.50
2019-04-30T10:29:22.622Z,16.40
2019-04-30T10:31:50.292Z,16.40
2019-04-30T10:34:18.144Z,16.50
2019-04-30T10:36:45.787Z,16.50
2019-04-30T10:39:14.579Z,16.60
2019-04-30T10:41:42.433Z,16.50
2019-04-30T10:44:10.062Z,16.50
2019-04-30T10:46:38.782Z,16.50
2019-04-30T10:49:06.436Z,16.60
2019-04-30T10:51:34.053Z,16.90
2019-04-30T10:54:01.737Z,17.10
2019-04-30T10:56:29.823Z,17.10
2019-04-30T10:58:57.459Z,17.00
2019-04-30T11:01:25.154Z,17.20
2019-04-30T11:03:52.814Z,17.40
2019-04-30T11:06:20.452Z,17.70
2019-04-30T11:08:48.130Z,17.80
2019-04-30T11:11:15.797Z,17.50
2019-04-30T11:13:43.436Z,17.20
2019-04-30T11:16:14.763Z,17.20
2019-04-30T11:18:40.808Z,17.30
2019-04-30T11:21:09.776Z,17.40
2019-04-30T11:23:39.427Z,17.40
2019-04-30T11:26:07.509Z,17.30
2019-04-30T11:28:35.860Z,17.50
2019-04-30T11:31:21.775Z,17.70
2019-04-30T11:33:49.982Z,17.80
2019-04-30T11:36:19.369Z,18.00
2019-04-30T11:38:48.754Z,18.00
2019-04-30T11:41:29.283Z,18.00
2019-04-30T11:43:46.076Z,17.90
2019-04-30T11:47:03.305Z,18.00
2019-04-30T11:49:30.960Z,18.10
2019-04-30T11:51:58.690Z,18.30
2019-04-30T11:54:27.130Z,18.40
2019-04-30T11:56:54.784Z,18.60
2019-04-30T11:59:23.437Z,18.40
2019-04-30T12:01:52.900Z,18.40
2019-04-30T12:04:20.569Z,18.70
2019-04-30T12:06:48.332Z,18.90
2019-04-30T12:09:53.369Z,19.20
2019-04-30T12:12:21.053Z,19.40
2019-04-30T12:14:49.433Z,19.60
2019-04-30T12:17:17.261Z,19.40
2019-04-30T12:19:44.913Z,19.50
2019-04-30T12:22:12.572Z,19.50
2019-04-30T12:24:40.277Z,19.30
2019-04-30T12:27:08.037Z,19.20
2019-04-30T12:29:35.678Z,19.30
2019-04-30T12:32:03.397Z,19.50
2019-04-30T12:34:31.265Z,19.70
2019-04-30T12:36:59.640Z,19.90
2019-04-30T12:39:28.424Z,20.00
2019-04-30T12:41:58.844Z,20.20
2019-04-30T12:44:26.528Z,20.40
2019-04-30T12:46:56.001Z,20.50
2019-04-30T12:49:23.658Z,20.60
2019-04-30T12:52:16.664Z,20.50
2019-04-30T12:54:49.507Z,20.40
2019-04-30T12:57:23.141Z,20.30
2019-04-30T12:59:50.777Z,20.00
2019-04-30T13:02:19.152Z,19.90
2019-04-30T13:04:47.389Z,20.00
2019-04-30T13:07:17.015Z,20.20
2019-04-30T13:09:49.855Z,20.40
2019-04-30T13:12:17.764Z,20.30
2019-04-30T13:14:52.520Z,20.00
2019-04-30T13:17:15.440Z,19.80
2019-04-30T13:19:43.071Z,19.80
2019-04-30T13:22:11.295Z,20.10
2019-04-30T13:24:39.869Z,20.20
2019-04-30T13:27:09.449Z,20.30
2019-04-30T13:29:51.521Z,20.30
2019-04-30T13:32:29.921Z,20.00
2019-04-30T13:34:54.944Z,19.80
2019-04-30T13:37:22.733Z,19.70
2019-04-30T13:40:13.086Z,19.70
2019-04-30T13:42:44.045Z,19.90
2019-04-30T13:45:12.676Z,19.90
2019-04-30T13:47:40.438Z,20.10
2019-04-30T13:50:09.288Z,20.20
2019-04-30T13:52:38.873Z,20.30
2019-04-30T13:55:06.811Z,20.20
2019-04-30T13:57:34.579Z,20.20
2019-04-30T14:00:04.387Z,20.40
2019-04-30T14:02:36.490Z,20.60
2019-04-30T14:05:12.065Z,20.70
2019-04-30T14:08:06.537Z,20.60
2019-04-30T14:10:36.664Z,20.40
2019-04-30T14:13:05.529Z,20.20
2019-04-30T14:15:33.185Z,20.10
2019-04-30T14:18:00.860Z,20.40
2019-04-30T14:20:28.505Z,20.60
2019-04-30T14:22:57.609Z,20.40
2019-04-30T14:25:25.349Z,20.30
2019-04-30T14:27:54.848Z,20.30
2019-04-30T14:30:22.745Z,20.30
2019-04-30T14:32:50.788Z,20.30
2019-04-30T14:35:18.746Z,20.20
2019-04-30T14:37:46.457Z,20.30
2019-04-30T14:40:15.141Z,20.40
2019-04-30T14:42:54.555Z,20.30
2019-04-30T14:45:27.492Z,20.30
2019-04-30T14:48:20.751Z,20.20
2019-04-30T14:50:48.966Z,20.10
2019-04-30T14:53:25.941Z,20.10
2019-04-30T14:56:11.681Z,20.30
2019-04-30T14:59:13.326Z,20.40
2019-04-30T15:01:45.365Z,20.60
2019-04-30T15:04:14.130Z,20.70
2019-04-30T15:06:41.777Z,20.80
2019-04-30T15:09:10.577Z,20.80
2019-04-30T15:11:38.805Z,20.80
2019-04-30T15:14:06.480Z,20.60
2019-04-30T15:16:34.157Z,20.60
2019-04-30T15:19:01.911Z,20.60
2019-04-30T15:21:30.668Z,20.70
2019-04-30T15:24:09.410Z,20.60
2019-04-30T15:26:40.672Z,20.60
2019-04-30T15:29:11.689Z,20.50
2019-04-30T15:31:39.447Z,20.40
2019-04-30T15:34:11.298Z,20.40
2019-04-30T15:36:39.419Z,20.30
2019-04-30T15:39:16.316Z,20.40
2019-04-30T15:41:44.013Z,20.50
2019-04-30T15:44:11.742Z,20.60
2019-04-30T15:46:39.399Z,20.70
2019-04-30T15:49:07.185Z,20.80
2019-04-30T15:51:34.965Z,20.80
2019-04-30T15:54:03.279Z,20.80
2019-04-30T15:56:37.083Z,20.80
2019-04-30T15:59:18.965Z,20.70
2019-04-30T16:01:49.904Z,20.70
2019-04-30T16:04:20.889Z,20.70
2019-04-30T16:06:49.187Z,20.70
2019-04-30T16:09:23.390Z,20.70
2019-04-30T16:12:01.493Z,20.60
2019-04-30T16:14:34.448Z,20.70
2019-04-30T16:17:23.284Z,20.60
2019-04-30T16:19:53.051Z,20.60
2019-04-30T16:22:21.293Z,20.80
2019-04-30T16:24:49.519Z,20.80
2019-04-30T16:27:19.032Z,20.80
2019-04-30T16:29:46.982Z,20.80
2019-04-30T16:32:15.484Z,20.90
2019-04-30T16:34:43.458Z,20.90
2019-04-30T16:37:11.089Z,20.80
2019-04-30T16:39:39.769Z,20.80
2019-04-30T16:42:09.099Z,20.70
2019-04-30T16:44:36.953Z,20.50
2019-04-30T16:47:13.673Z,20.30
2019-04-30T16:49:34.976Z,20.20
2019-04-30T16:52:02.648Z,20.20
2019-04-30T16:54:30.394Z,20.20
2019-04-30T16:57:04.262Z,20.40
2019-04-30T16:59:33.996Z,20.50
2019-04-30T17:02:01.720Z,20.50
2019-04-30T17:04:39.071Z,20.50
2019-04-30T17:07:21.368Z,20.40
2019-04-30T17:09:56.079Z,20.50
2019-04-30T17:12:33.411Z,20.60
2019-04-30T17:15:22.124Z,20.50
2019-04-30T17:17:50.002Z,20.60
2019-04-30T17:20:18.518Z,20.70
2019-04-30T17:22:49.507Z,20.60
2019-04-30T17:25:17.068Z,20.60
2019-04-30T17:27:44.874Z,20.60
2019-04-30T17:30:12.745Z,20.60
2019-04-30T17:32:40.416Z,20.70
2019-04-30T17:35:09.117Z,20.50
2019-04-30T17:37:37.006Z,20.40
2019-04-30T17:40:05.294Z,20.30
2019-04-30T17:42:33.188Z,20.40
2019-04-30T17:45:01.628Z,20.40
2019-04-30T17:47:29.957Z,20.30
2019-04-30T17:49:58.915Z,20.20
2019-04-30T17:52:29.793Z,20.10
2019-04-30T17:54:59.484Z,20.10
2019-04-30T17:57:33.850Z,20.00
2019-04-30T17:59:59.051Z,20.00
2019-04-30T18:02:29.364Z,19.90
2019-04-30T18:04:57.231Z,19.80
2019-04-30T18:07:25.292Z,19.80
2019-04-30T18:09:54.431Z,19.70
2019-04-30T18:12:22.241Z,19.60
2019-04-30T18:14:50.030Z,19.50
2019-04-30T18:17:17.754Z,19.30
2019-04-30T18:20:10.959Z,19.20
2019-04-30T18:22:58.310Z,19.00
2019-04-30T18:25:37.416Z,18.90
2019-04-30T18:28:05.206Z,18.70
2019-04-30T18:30:35.131Z,18.50
2019-04-30T18:33:03.317Z,18.30
2019-04-30T18:35:30.975Z,18.10
2019-04-30T18:37:58.709Z,18.10
2019-04-30T18:40:26.441Z,18.00
2019-04-30T18:42:54.200Z,17.80
2019-04-30T18:45:21.981Z,17.70
2019-04-30T18:47:49.873Z,17.70
2019-04-30T18:50:17.557Z,17.60
2019-04-30T18:52:45.461Z,17.50
2019-04-30T18:55:14.248Z,17.30
2019-04-30T18:57:41.884Z,17.20
2019-04-30T19:00:10.371Z,17.00
2019-04-30T19:02:38.354Z,17.00
2019-04-30T19:05:11.536Z,16.80
2019-04-30T19:07:50.996Z,16.70
2019-04-30T19:10:40.122Z,16.70
2019-04-30T19:13:18.934Z,16.80
2019-04-30T19:16:25.198Z,16.70
2019-04-30T19:18:40.014Z,16.40
2019-04-30T19:21:09.091Z,16.20
2019-04-30T19:23:38.605Z,16.20
2019-04-30T19:26:06.399Z,16.10
2019-04-30T19:28:34.155Z,15.90
2019-04-30T19:31:01.976Z,15.70
2019-04-30T19:33:31.141Z,15.60
2019-04-30T19:35:59.074Z,15.60
2019-04-30T19:38:26.771Z,15.60
2019-04-30T19:40:54.510Z,15.50
2019-04-30T19:43:22.234Z,15.50
2019-04-30T19:45:51.241Z,15.30
2019-04-30T19:48:19.348Z,15.30
2019-04-30T19:50:48.862Z,15.40
2019-04-30T19:53:21.845Z,15.20
2019-04-30T19:55:49.119Z,15.20
2019-04-30T19:58:26.132Z,15.20
2019-04-30T20:00:46.967Z,15.20
2019-04-30T20:03:14.730Z,15.20
2019-04-30T20:05:42.387Z,15.20
2019-04-30T20:08:11.106Z,15.30
2019-04-30T20:10:39.842Z,15.20
2019-04-30T20:13:07.758Z,15.10
2019-04-30T20:15:35.392Z,15.00
2019-04-30T20:18:03.332Z,14.80
2019-04-30T20:20:31.005Z,14.80
2019-04-30T20:22:58.763Z,14.80
2019-04-30T20:25:26.441Z,14.90
2019-04-30T20:27:54.193Z,14.90
2019-04-30T20:30:21.912Z,15.00
2019-04-30T20:32:51.381Z,15.00
2019-04-30T20:35:19.174Z,15.10
2019-04-30T20:38:04.792Z,15.10
2019-04-30T20:40:43.266Z,15.10
2019-04-30T20:43:03.410Z,15.00
2019-04-30T20:45:31.097Z,15.00
2019-04-30T20:47:59.225Z,15.00
2019-04-30T20:50:26.953Z,15.00
2019-04-30T20:52:54.709Z,14.60
2019-04-30T20:55:22.401Z,14.50
2019-04-30T20:57:50.064Z,14.60
2019-04-30T21:00:17.914Z,14.60
2019-04-30T21:02:45.600Z,14.60
2019-04-30T21:05:13.288Z,14.50
2019-04-30T21:07:40.936Z,14.40
2019-04-30T21:10:10.134Z,14.30
2019-04-30T21:12:39.666Z,14.30
2019-04-30T21:15:09.579Z,14.20
2019-04-30T21:17:37.225Z,14.20
2019-04-30T21:20:05.120Z,14.20
2019-04-30T21:22:32.778Z,14.20
2019-04-30T21:25:00.614Z,14.10
2019-04-30T21:27:30.475Z,14.10
2019-04-30T21:29:58.973Z,14.00
2019-04-30T21:32:49.226Z,14.10
2019-04-30T21:35:32.939Z,14.20
2019-04-30T21:38:01.668Z,14.30
2019-04-30T21:40:29.726Z,14.20
2019-04-30T21:42:57.441Z,13.80
2019-04-30T21:45:25.105Z,13.70
2019-04-30T21:47:56.363Z,13.70
2019-04-30T21:50:22.348Z,13.60
2019-04-30T21:52:49.968Z,13.60
2019-04-30T21:55:19.663Z,13.70
2019-04-30T21:57:49.531Z,13.50
2019-04-30T22:00:25.047Z,13.50
2019-04-30T22:02:54.593Z,13.30
2019-04-30T22:05:22.293Z,13.40
2019-04-30T22:07:51.176Z,13.30
2019-04-30T22:10:18.981Z,13.40
2019-04-30T22:12:48.930Z,13.30
2019-04-30T22:15:16.711Z,13.20
2019-04-30T22:17:44.566Z,13.20
2019-04-30T22:20:12.330Z,13.30
2019-04-30T22:22:41.809Z,13.20
2019-04-30T22:25:10.281Z,13.10
2019-04-30T22:27:38.006Z,13.10
2019-04-30T22:30:06.277Z,13.10
2019-04-30T22:32:35.135Z,13.20
2019-04-30T22:35:21.185Z,13.20
2019-04-30T22:37:51.128Z,13.10
2019-04-30T22:40:19.554Z,13.00
2019-04-30T22:42:49.444Z,12.90
2019-04-30T22:45:21.970Z,12.90
2019-04-30T22:47:50.354Z,13.00
2019-04-30T22:50:18.337Z,12.90
2019-04-30T22:52:46.052Z,12.80
2019-04-30T22:55:13.717Z,12.80
2019-04-30T22:57:41.460Z,12.80
2019-04-30T23:00:12.810Z,12.70
2019-04-30T23:03:03.168Z,12.60
2019-04-30T23:05:30.934Z,12.60
2019-04-30T23:07:58.886Z,12.70
2019-04-30T23:10:26.533Z,12.80
2019-04-30T23:12:54.178Z,12.80
2019-04-30T23:15:21.844Z,12.80
2019-04-30T23:17:49.496Z,12.80
2019-04-30T23:20:17.145Z,12.70
2019-04-30T23:22:44.777Z,12.40
2019-04-30T23:25:12.544Z,12.30
2019-04-30T23:27:41.958Z,12.30
2019-04-30T23:30:10.063Z,12.40
2019-04-30T23:32:37.693Z,12.50
2019-04-30T23:35:05.485Z,12.60
2019-04-30T23:37:33.194Z,12.60
2019-04-30T23:40:23.269Z,12.30
2019-04-30T23:42:51.400Z,12.00
2019-04-30T23:45:19.053Z,12.00
2019-04-30T23:47:46.924Z,11.80
2019-04-30T23:50:14.573Z,11.80
2019-04-30T23:52:42.224Z,11.80
2019-04-30T23:55:09.949Z,11.80
2019-04-30T23:57:37.605Z,11.80
